createdAt,value
2018-01-12T00:05:40.880Z,1.6
2018-01-12T00:15:54.911Z,1.6
2018-01-12T00:26:10.796Z,1.7
2018-01-12T00:36:24.915Z,1.7
2018-01-12T00:46:38.641Z,1.8
2018-01-12T00:56:52.770Z,1.8
2018-01-12T01:07:07.066Z,1.8
2018-01-12T01:17:21.226Z,1.8
2018-01-12T01:27:37.025Z,1.9
2018-01-12T01:37:50.789Z,1.9
2018-01-12T01:48:05.064Z,2.0
2018-01-12T01:58:19.225Z,2.0
2018-01-12T02:08:31.643Z,2.1
2018-01-12T02:18:43.903Z,2.1
2018-01-12T02:28:58.077Z,2.1
2018-01-12T02:39:12.864Z,2.2
2018-01-12T02:49:26.765Z,2.2
2018-01-12T02:59:40.769Z,2.2
2018-01-12T03:09:54.793Z,2.3
2018-01-12T03:20:39.342Z,2.4
2018-01-12T03:30:52.992Z,2.3
2018-01-12T03:41:08.041Z,2.4
2018-01-12T03:51:21.358Z,2.4
2018-01-12T04:01:34.606Z,2.5
2018-01-12T04:11:47.978Z,2.5
2018-01-12T04:22:02.383Z,2.5
2018-01-12T04:32:18.123Z,2.6
2018-01-12T04:42:31.844Z,2.6
2018-01-12T04:53:17.094Z,2.7
2018-01-12T05:03:31.038Z,2.7
2018-01-12T05:14:16.852Z,2.8
2018-01-12T05:24:30.961Z,2.8
2018-01-12T05:34:45.110Z,2.8
2018-01-12T05:45:03.380Z,2.8
2018-01-12T05:55:21.089Z,2.8
2018-01-12T06:05:34.704Z,2.9
2018-01-12T06:15:48.817Z,2.9
2018-01-12T06:26:03.173Z,2.9
2018-01-12T06:36:48.562Z,2.9
2018-01-12T06:47:10.407Z,2.9
2018-01-12T06:57:25.971Z,2.9
2018-01-12T07:08:14.778Z,2.9
2018-01-12T07:18:28.471Z,2.9
2018-01-12T07:28:42.240Z,3.0
2018-01-12T07:39:53.852Z,3.0
2018-01-12T07:50:09.069Z,3.0
2018-01-12T08:00:24.385Z,3.0
2018-01-12T08:10:37.663Z,3.0
2018-01-12T08:20:51.338Z,3.0
2018-01-12T08:31:27.743Z,3.0
2018-01-12T08:42:19.220Z,3.1
2018-01-12T08:52:32.674Z,3.1
2018-01-12T09:02:45.910Z,3.2
2018-01-12T09:13:02.827Z,3.2
2018-01-12T09:23:16.534Z,3.3
2018-01-12T09:34:02.132Z,3.4
2018-01-12T09:44:52.458Z,3.4
2018-01-12T09:55:14.675Z,3.4
2018-01-12T10:16:05.750Z,3.5
2018-01-12T10:26:51.253Z,3.6
2018-01-12T10:37:13.244Z,3.6
2018-01-12T10:47:27.088Z,3.6
2018-01-12T10:57:41.202Z,3.7
2018-01-12T11:07:55.387Z,3.8
2018-01-12T11:18:09.503Z,3.9
2018-01-12T11:28:54.103Z,4.1
2018-01-12T11:39:39.004Z,4.2
2018-01-12T11:49:53.082Z,4.2
2018-01-12T12:00:37.573Z,4.4
2018-01-12T12:10:51.367Z,4.4
2018-01-12T12:21:36.890Z,4.6
2018-01-12T12:32:38.490Z,4.8
2018-01-12T12:43:28.295Z,4.9
2018-01-12T13:03:58.754Z,5.0
2018-01-12T13:14:14.303Z,5.1
2018-01-12T13:24:28.577Z,5.1
2018-01-12T13:34:42.532Z,5.2
2018-01-12T13:44:59.504Z,5.2
2018-01-12T13:56:09.756Z,5.1
2018-01-12T14:06:24.184Z,5.1
2018-01-12T14:16:50.045Z,5.0
2018-01-12T14:27:03.921Z,5.0
2018-01-12T14:37:17.187Z,5.0
2018-01-12T14:47:30.861Z,4.9
2018-01-12T14:57:46.833Z,4.8
2018-01-12T15:08:07.467Z,4.8
2018-01-12T15:18:26.966Z,4.8
2018-01-12T15:28:45.127Z,4.8
2018-01-12T15:39:02.588Z,4.7
2018-01-12T15:49:21.704Z,4.7
2018-01-12T16:00:07.229Z,4.6
2018-01-12T16:10:23.577Z,4.6
2018-01-12T16:20:42.817Z,4.5
2018-01-12T16:30:58.230Z,4.5
2018-01-12T16:41:13.242Z,4.5
2018-01-12T16:51:27.141Z,4.4
2018-01-12T17:01:42.016Z,4.4
2018-01-12T17:11:55.735Z,4.4
2018-01-12T17:22:11.948Z,4.3
2018-01-12T17:33:00.298Z,4.3
2018-01-12T17:43:48.199Z,4.3
2018-01-12T17:54:43.992Z,4.3
2018-01-12T18:05:02.225Z,4.3
2018-01-12T18:15:48.588Z,4.2
2018-01-12T18:26:39.063Z,4.2
2018-01-12T18:37:14.695Z,4.2
2018-01-12T20:17:00.251Z,4.3
2018-01-12T20:42:39.234Z,4.2
2018-01-12T20:53:38.880Z,4.2
2018-01-12T21:19:27.280Z,4.2
2018-01-12T21:32:52.198Z,4.3
2018-01-12T21:53:37.229Z,4.3
2018-01-12T22:03:52.557Z,4.3
2018-01-12T22:14:10.648Z,4.3
2018-01-12T22:24:28.262Z,4.3
2018-01-12T22:35:30.757Z,4.3
2018-01-12T22:45:46.107Z,4.3
2018-01-12T22:56:40.694Z,4.3
2018-01-12T23:06:58.834Z,4.3
2018-01-12T23:17:24.482Z,4.3
2018-01-12T23:27:43.079Z,4.3
2018-01-12T23:38:30.213Z,4.3
2018-01-12T23:49:26.768Z,4.3
